sensor_id;sensor_type;location;lat;lon;timestamp;temperature;humidity
10512;DHT22;5304;48.604;2.096;2022-09-21T00:00:52;9.40;99.90
10512;DHT22;5304;48.604;2.096;2022-09-21T00:03:37;9.40;99.90
10512;DHT22;5304;48.604;2.096;2022-09-21T00:06:26;9.40;99.90
10512;DHT22;5304;48.604;2.096;2022-09-21T00:09:11;9.30;99.90
10512;DHT22;5304;48.604;2.096;2022-09-21T00:11:55;9.30;99.90
10512;DHT22;5304;48.604;2.096;2022-09-21T00:14:41;9.30;99.90
10512;DHT22;5304;48.604;2.096;2022-09-21T00:17:26;9.30;99.90
10512;DHT22;5304;48.604;2.096;2022-09-21T00:20:11;9.40;99.90
10512;DHT22;5304;48.604;2.096;2022-09-21T00:22:55;9.40;99.90
10512;DHT22;5304;48.604;2.096;2022-09-21T00:25:40;9.40;99.90
10512;DHT22;5304;48.604;2.096;2022-09-21T00:28:24;9.50;99.90
10512;DHT22;5304;48.604;2.096;2022-09-21T00:31:11;9.50;99.90
10512;DHT22;5304;48.604;2.096;2022-09-21T00:33:56;9.50;99.90
10512;DHT22;5304;48.604;2.096;2022-09-21T00:36:42;9.60;99.90
10512;DHT22;5304;48.604;2.096;2022-09-21T00:39:26;9.50;99.90
10512;DHT22;5304;48.604;2.096;2022-09-21T00:42:24;9.60;99.90
10512;DHT22;5304;48.604;2.096;2022-09-21T00:45:12;9.50;99.90
10512;DHT22;5304;48.604;2.096;2022-09-21T00:48:04;9.60;99.90
10512;DHT22;5304;48.604;2.096;2022-09-21T00:50:51;9.60;99.90
10512;DHT22;5304;48.604;2.096;2022-09-21T00:53:38;9.70;99.90
10512;DHT22;5304;48.604;2.096;2022-09-21T00:56:23;10.00;99.90
10512;DHT22;5304;48.604;2.096;2022-09-21T00:59:08;10.10;99.90
10512;DHT22;5304;48.604;2.096;2022-09-21T01:01:53;10.00;99.90
10512;DHT22;5304;48.604;2.096;2022-09-21T01:04:38;10.00;99.90
10512;DHT22;5304;48.604;2.096;2022-09-21T01:07:26;10.00;99.90
10512;DHT22;5304;48.604;2.096;2022-09-21T01:10:14;10.00;99.90
10512;DHT22;5304;48.604;2.096;2022-09-21T01:19:26;10.00;99.90
10512;DHT22;5304;48.604;2.096;2022-09-21T01:31:35;10.00;99.90
10512;DHT22;5304;48.604;2.096;2022-09-21T01:34:34;10.00;99.90
10512;DHT22;5304;48.604;2.096;2022-09-21T01:37:29;10.00;99.90
10512;DHT22;5304;48.604;2.096;2022-09-21T01:40:36;10.00;99.90
10512;DHT22;5304;48.604;2.096;2022-09-21T01:43:26;10.00;99.90
10512;DHT22;5304;48.604;2.096;2022-09-21T01:46:16;9.90;99.90
10512;DHT22;5304;48.604;2.096;2022-09-21T01:49:23;9.90;99.90
10512;DHT22;5304;48.604;2.096;2022-09-21T01:52:17;10.00;99.90
10512;DHT22;5304;48.604;2.096;2022-09-21T01:55:08;10.00;99.90
10512;DHT22;5304;48.604;2.096;2022-09-21T01:58:04;10.20;99.90
10512;DHT22;5304;48.604;2.096;2022-09-21T02:00:53;10.00;99.90
10512;DHT22;5304;48.604;2.096;2022-09-21T02:03:42;9.90;99.90
10512;DHT22;5304;48.604;2.096;2022-09-21T02:06:29;9.80;99.90
10512;DHT22;5304;48.604;2.096;2022-09-21T02:09:14;9.70;99.90
10512;DHT22;5304;48.604;2.096;2022-09-21T02:11:59;9.60;99.90
10512;DHT22;5304;48.604;2.096;2022-09-21T02:14:44;9.60;99.90
10512;DHT22;5304;48.604;2.096;2022-09-21T02:17:39;9.60;99.90
10512;DHT22;5304;48.604;2.096;2022-09-21T02:20:33;9.50;99.90
10512;DHT22;5304;48.604;2.096;2022-09-21T02:26:30;9.30;99.90
10512;DHT22;5304;48.604;2.096;2022-09-21T02:29:31;9.30;99.90
10512;DHT22;5304;48.604;2.096;2022-09-21T02:32:27;9.40;99.90
10512;DHT22;5304;48.604;2.096;2022-09-21T02:35:30;9.60;99.90
10512;DHT22;5304;48.604;2.096;2022-09-21T02:38:38;9.70;99.90
10512;DHT22;5304;48.604;2.096;2022-09-21T02:44:26;9.50;99.90
10512;DHT22;5304;48.604;2.096;2022-09-21T02:47:26;9.40;99.90
10512;DHT22;5304;48.604;2.096;2022-09-21T02:50:17;9.40;99.90
10512;DHT22;5304;48.604;2.096;2022-09-21T02:53:03;9.50;99.90
10512;DHT22;5304;48.604;2.096;2022-09-21T02:55:50;9.60;99.90
10512;DHT22;5304;48.604;2.096;2022-09-21T02:58:39;9.50;99.90
10512;DHT22;5304;48.604;2.096;2022-09-21T03:01:26;9.50;99.90
10512;DHT22;5304;48.604;2.096;2022-09-21T03:04:11;9.40;99.90
10512;DHT22;5304;48.604;2.096;2022-09-21T03:06:56;9.30;99.90
10512;DHT22;5304;48.604;2.096;2022-09-21T03:09:40;9.20;99.90
10512;DHT22;5304;48.604;2.096;2022-09-21T03:12:25;9.10;99.90
10512;DHT22;5304;48.604;2.096;2022-09-21T03:15:09;9.10;99.90
10512;DHT22;5304;48.604;2.096;2022-09-21T03:17:54;9.00;99.90
10512;DHT22;5304;48.604;2.096;2022-09-21T03:20:42;9.00;99.90
10512;DHT22;5304;48.604;2.096;2022-09-21T03:23:29;9.00;99.90
10512;DHT22;5304;48.604;2.096;2022-09-21T03:26:14;9.00;99.90
10512;DHT22;5304;48.604;2.096;2022-09-21T03:28:59;8.90;99.90
10512;DHT22;5304;48.604;2.096;2022-09-21T03:31:44;8.90;99.90
10512;DHT22;5304;48.604;2.096;2022-09-21T03:34:28;8.80;99.90
10512;DHT22;5304;48.604;2.096;2022-09-21T03:37:15;8.80;99.90
10512;DHT22;5304;48.604;2.096;2022-09-21T03:39:59;8.80;99.90
10512;DHT22;5304;48.604;2.096;2022-09-21T03:42:44;8.70;99.90
10512;DHT22;5304;48.604;2.096;2022-09-21T03:45:29;8.60;99.90
10512;DHT22;5304;48.604;2.096;2022-09-21T03:48:13;8.60;99.90
10512;DHT22;5304;48.604;2.096;2022-09-21T03:50:58;8.50;99.90
10512;DHT22;5304;48.604;2.096;2022-09-21T03:53:42;8.50;99.90
10512;DHT22;5304;48.604;2.096;2022-09-21T03:56:27;8.40;99.90
10512;DHT22;5304;48.604;2.096;2022-09-21T03:59:12;8.40;99.90
10512;DHT22;5304;48.604;2.096;2022-09-21T04:01:56;8.30;99.90
10512;DHT22;5304;48.604;2.096;2022-09-21T04:04:41;8.20;99.90
10512;DHT22;5304;48.604;2.096;2022-09-21T04:07:25;8.30;99.90
10512;DHT22;5304;48.604;2.096;2022-09-21T04:10:18;8.20;99.90
10512;DHT22;5304;48.604;2.096;2022-09-21T04:13:03;8.30;99.90
10512;DHT22;5304;48.604;2.096;2022-09-21T04:15:47;8.30;99.90
10512;DHT22;5304;48.604;2.096;2022-09-21T04:18:32;8.30;99.90
10512;DHT22;5304;48.604;2.096;2022-09-21T04:21:17;8.30;99.90
10512;DHT22;5304;48.604;2.096;2022-09-21T04:24:04;8.20;99.90
10512;DHT22;5304;48.604;2.096;2022-09-21T04:26:48;8.20;99.90
10512;DHT22;5304;48.604;2.096;2022-09-21T04:29:33;8.20;99.90
10512;DHT22;5304;48.604;2.096;2022-09-21T04:32:17;8.10;99.90
10512;DHT22;5304;48.604;2.096;2022-09-21T04:35:02;8.00;99.90
10512;DHT22;5304;48.604;2.096;2022-09-21T04:37:47;7.90;99.90
10512;DHT22;5304;48.604;2.096;2022-09-21T04:40:31;7.80;99.90
10512;DHT22;5304;48.604;2.096;2022-09-21T04:43:16;7.80;99.90
10512;DHT22;5304;48.604;2.096;2022-09-21T04:46:12;7.70;99.90
10512;DHT22;5304;48.604;2.096;2022-09-21T04:48:56;7.70;99.90
10512;DHT22;5304;48.604;2.096;2022-09-21T04:51:41;7.70;99.90
10512;DHT22;5304;48.604;2.096;2022-09-21T04:54:26;7.60;99.90
10512;DHT22;5304;48.604;2.096;2022-09-21T04:57:11;7.60;99.90
10512;DHT22;5304;48.604;2.096;2022-09-21T04:59:55;7.60;99.90
10512;DHT22;5304;48.604;2.096;2022-09-21T05:02:40;7.60;99.90
10512;DHT22;5304;48.604;2.096;2022-09-21T05:05:24;7.60;99.90
10512;DHT22;5304;48.604;2.096;2022-09-21T05:08:08;7.70;99.90
10512;DHT22;5304;48.604;2.096;2022-09-21T05:10:53;7.60;99.90
10512;DHT22;5304;48.604;2.096;2022-09-21T05:13:39;7.60;99.90
10512;DHT22;5304;48.604;2.096;2022-09-21T05:16:23;7.70;99.90
10512;DHT22;5304;48.604;2.096;2022-09-21T05:19:08;7.70;99.90
10512;DHT22;5304;48.604;2.096;2022-09-21T05:21:52;7.70;99.90
10512;DHT22;5304;48.604;2.096;2022-09-21T05:24:36;7.70;99.90
10512;DHT22;5304;48.604;2.096;2022-09-21T05:27:21;7.70;99.90
10512;DHT22;5304;48.604;2.096;2022-09-21T05:30:05;7.60;99.90
10512;DHT22;5304;48.604;2.096;2022-09-21T05:33:12;7.60;99.90
10512;DHT22;5304;48.604;2.096;2022-09-21T05:39:07;7.60;99.90
10512;DHT22;5304;48.604;2.096;2022-09-21T05:41:51;7.70;99.90
10512;DHT22;5304;48.604;2.096;2022-09-21T05:44:36;7.90;99.90
10512;DHT22;5304;48.604;2.096;2022-09-21T05:48:05;8.00;99.90
10512;DHT22;5304;48.604;2.096;2022-09-21T06:05:44;8.80;99.90
10512;DHT22;5304;48.604;2.096;2022-09-21T06:08:29;9.00;99.90
10512;DHT22;5304;48.604;2.096;2022-09-21T06:11:13;9.10;99.90
10512;DHT22;5304;48.604;2.096;2022-09-21T06:14:00;9.30;99.90
10512;DHT22;5304;48.604;2.096;2022-09-21T06:16:45;9.50;99.90
10512;DHT22;5304;48.604;2.096;2022-09-21T06:19:30;9.60;99.90
10512;DHT22;5304;48.604;2.096;2022-09-21T06:22:14;9.60;99.90
10512;DHT22;5304;48.604;2.096;2022-09-21T06:24:59;9.70;99.90
10512;DHT22;5304;48.604;2.096;2022-09-21T06:27:43;9.70;99.90
10512;DHT22;5304;48.604;2.096;2022-09-21T06:30:28;9.80;99.90
10512;DHT22;5304;48.604;2.096;2022-09-21T06:33:13;10.00;99.90
10512;DHT22;5304;48.604;2.096;2022-09-21T06:36:03;10.00;99.90
10512;DHT22;5304;48.604;2.096;2022-09-21T06:38:48;9.90;99.90
10512;DHT22;5304;48.604;2.096;2022-09-21T06:41:32;9.90;99.90
10512;DHT22;5304;48.604;2.096;2022-09-21T06:44:16;9.90;99.90
10512;DHT22;5304;48.604;2.096;2022-09-21T06:47:01;10.10;99.90
10512;DHT22;5304;48.604;2.096;2022-09-21T06:49:45;10.30;99.90
10512;DHT22;5304;48.604;2.096;2022-09-21T06:52:30;10.50;99.90
10512;DHT22;5304;48.604;2.096;2022-09-21T06:55:15;10.70;99.90
10512;DHT22;5304;48.604;2.096;2022-09-21T06:58:03;10.90;99.90
10512;DHT22;5304;48.604;2.096;2022-09-21T07:00:48;11.00;99.90
10512;DHT22;5304;48.604;2.096;2022-09-21T07:03:33;11.10;99.90
10512;DHT22;5304;48.604;2.096;2022-09-21T07:06:17;11.20;99.90
10512;DHT22;5304;48.604;2.096;2022-09-21T07:09:03;11.30;99.90
10512;DHT22;5304;48.604;2.096;2022-09-21T07:11:47;11.30;99.90
10512;DHT22;5304;48.604;2.096;2022-09-21T07:14:32;11.40;99.90
10512;DHT22;5304;48.604;2.096;2022-09-21T07:17:17;11.50;99.90
10512;DHT22;5304;48.604;2.096;2022-09-21T07:20:03;11.60;99.90
10512;DHT22;5304;48.604;2.096;2022-09-21T07:22:48;11.70;99.90
10512;DHT22;5304;48.604;2.096;2022-09-21T07:25:32;12.30;99.90
10512;DHT22;5304;48.604;2.096;2022-09-21T07:28:18;13.40;99.90
10512;DHT22;5304;48.604;2.096;2022-09-21T07:31:11;15.40;99.90
10512;DHT22;5304;48.604;2.096;2022-09-21T07:33:57;17.10;99.90
10512;DHT22;5304;48.604;2.096;2022-09-21T07:36:42;18.30;99.90
10512;DHT22;5304;48.604;2.096;2022-09-21T07:39:27;19.50;99.90
10512;DHT22;5304;48.604;2.096;2022-09-21T07:42:11;20.10;99.90
10512;DHT22;5304;48.604;2.096;2022-09-21T07:44:55;20.60;99.90
10512;DHT22;5304;48.604;2.096;2022-09-21T07:47:40;21.40;99.90
10512;DHT22;5304;48.604;2.096;2022-09-21T07:50:24;22.20;99.90
10512;DHT22;5304;48.604;2.096;2022-09-21T07:53:08;22.90;99.90
10512;DHT22;5304;48.604;2.096;2022-09-21T07:56:00;23.30;99.90
10512;DHT22;5304;48.604;2.096;2022-09-21T07:58:44;23.00;99.90
10512;DHT22;5304;48.604;2.096;2022-09-21T08:01:48;22.90;99.90
10512;DHT22;5304;48.604;2.096;2022-09-21T08:04:32;22.40;99.90
10512;DHT22;5304;48.604;2.096;2022-09-21T08:07:17;22.70;99.90
10512;DHT22;5304;48.604;2.096;2022-09-21T08:10:03;23.40;99.90
10512;DHT22;5304;48.604;2.096;2022-09-21T08:12:48;22.80;99.90
10512;DHT22;5304;48.604;2.096;2022-09-21T08:15:33;22.60;99.90
10512;DHT22;5304;48.604;2.096;2022-09-21T08:18:17;22.50;99.90
10512;DHT22;5304;48.604;2.096;2022-09-21T08:21:01;22.50;99.90
10512;DHT22;5304;48.604;2.096;2022-09-21T08:23:49;22.60;99.90
10512;DHT22;5304;48.604;2.096;2022-09-21T08:26:33;22.90;99.90
10512;DHT22;5304;48.604;2.096;2022-09-21T08:29:18;23.30;99.90
10512;DHT22;5304;48.604;2.096;2022-09-21T08:32:03;23.10;99.90
10512;DHT22;5304;48.604;2.096;2022-09-21T08:34:47;22.50;99.90
10512;DHT22;5304;48.604;2.096;2022-09-21T08:37:33;23.00;99.90
10512;DHT22;5304;48.604;2.096;2022-09-21T08:40:19;23.50;99.90
10512;DHT22;5304;48.604;2.096;2022-09-21T08:43:11;24.10;99.90
10512;DHT22;5304;48.604;2.096;2022-09-21T08:45:57;24.20;99.90
10512;DHT22;5304;48.604;2.096;2022-09-21T08:48:49;23.70;99.90
10512;DHT22;5304;48.604;2.096;2022-09-21T08:51:45;23.10;99.90
10512;DHT22;5304;48.604;2.096;2022-09-21T08:57:42;22.80;99.90
10512;DHT22;5304;48.604;2.096;2022-09-21T09:00:29;22.10;99.90
10512;DHT22;5304;48.604;2.096;2022-09-21T09:21:25;19.50;99.90
10512;DHT22;5304;48.604;2.096;2022-09-21T09:27:12;19.40;99.90
10512;DHT22;5304;48.604;2.096;2022-09-21T09:30:15;19.40;99.90
10512;DHT22;5304;48.604;2.096;2022-09-21T09:33:10;19.10;99.90
10512;DHT22;5304;48.604;2.096;2022-09-21T09:36:01;18.90;99.90
10512;DHT22;5304;48.604;2.096;2022-09-21T09:38:57;19.10;99.90
10512;DHT22;5304;48.604;2.096;2022-09-21T09:41:51;19.20;99.90
10512;DHT22;5304;48.604;2.096;2022-09-21T09:51:26;19.60;99.90
10512;DHT22;5304;48.604;2.096;2022-09-21T09:54:14;19.70;99.90
10512;DHT22;5304;48.604;2.096;2022-09-21T09:57:03;19.40;99.90
10512;DHT22;5304;48.604;2.096;2022-09-21T09:59:54;19.60;99.90
10512;DHT22;5304;48.604;2.096;2022-09-21T10:02:53;19.40;99.90
10512;DHT22;5304;48.604;2.096;2022-09-21T10:05:38;19.30;99.90
10512;DHT22;5304;48.604;2.096;2022-09-21T10:08:27;19.20;99.90
10512;DHT22;5304;48.604;2.096;2022-09-21T10:11:15;19.10;99.90
10512;DHT22;5304;48.604;2.096;2022-09-21T10:14:08;19.20;99.90
10512;DHT22;5304;48.604;2.096;2022-09-21T10:16:55;19.30;99.90
10512;DHT22;5304;48.604;2.096;2022-09-21T10:19:39;19.30;99.90
10512;DHT22;5304;48.604;2.096;2022-09-21T10:22:23;19.60;99.90
10512;DHT22;5304;48.604;2.096;2022-09-21T10:25:18;19.50;99.90
10512;DHT22;5304;48.604;2.096;2022-09-21T10:28:03;19.60;99.90
10512;DHT22;5304;48.604;2.096;2022-09-21T10:30:49;19.70;99.90
10512;DHT22;5304;48.604;2.096;2022-09-21T10:33:33;19.70;99.90
10512;DHT22;5304;48.604;2.096;2022-09-21T10:36:31;19.90;99.90
10512;DHT22;5304;48.604;2.096;2022-09-21T10:42:12;19.90;99.90
10512;DHT22;5304;48.604;2.096;2022-09-21T10:45:28;20.00;99.90
10512;DHT22;5304;48.604;2.096;2022-09-21T10:48:15;20.30;99.90
10512;DHT22;5304;48.604;2.096;2022-09-21T10:51:01;20.30;99.90
10512;DHT22;5304;48.604;2.096;2022-09-21T10:53:47;20.10;99.90
10512;DHT22;5304;48.604;2.096;2022-09-21T10:56:32;20.00;99.90
10512;DHT22;5304;48.604;2.096;2022-09-21T10:59:28;20.20;99.90
10512;DHT22;5304;48.604;2.096;2022-09-21T11:05:22;20.70;99.90
10512;DHT22;5304;48.604;2.096;2022-09-21T11:08:34;20.40;99.90
10512;DHT22;5304;48.604;2.096;2022-09-21T11:11:44;20.20;99.90
10512;DHT22;5304;48.604;2.096;2022-09-21T11:14:48;20.20;99.90
10512;DHT22;5304;48.604;2.096;2022-09-21T11:17:35;20.20;99.90
10512;DHT22;5304;48.604;2.096;2022-09-21T11:20:29;20.00;99.90
10512;DHT22;5304;48.604;2.096;2022-09-21T11:29:18;20.30;99.90
10512;DHT22;5304;48.604;2.096;2022-09-21T11:32:21;20.20;99.90
10512;DHT22;5304;48.604;2.096;2022-09-21T11:45:10;19.40;99.90
10512;DHT22;5304;48.604;2.096;2022-09-21T11:56:40;20.60;99.90
10512;DHT22;5304;48.604;2.096;2022-09-21T12:08:35;20.00;99.90
10512;DHT22;5304;48.604;2.096;2022-09-21T12:11:38;20.20;99.90
10512;DHT22;5304;48.604;2.096;2022-09-21T12:14:56;20.30;99.90
10512;DHT22;5304;48.604;2.096;2022-09-21T12:18:11;20.70;99.90
10512;DHT22;5304;48.604;2.096;2022-09-21T12:21:17;20.80;99.90
10512;DHT22;5304;48.604;2.096;2022-09-21T12:24:23;20.60;99.90
10512;DHT22;5304;48.604;2.096;2022-09-21T12:27:27;20.80;99.90
10512;DHT22;5304;48.604;2.096;2022-09-21T12:30:20;20.90;99.90
10512;DHT22;5304;48.604;2.096;2022-09-21T12:36:38;20.40;99.90
10512;DHT22;5304;48.604;2.096;2022-09-21T12:39:54;20.30;99.90
10512;DHT22;5304;48.604;2.096;2022-09-21T12:42:42;20.40;99.90
10512;DHT22;5304;48.604;2.096;2022-09-21T12:45:34;20.40;99.90
10512;DHT22;5304;48.604;2.096;2022-09-21T12:48:31;20.50;99.90
10512;DHT22;5304;48.604;2.096;2022-09-21T12:51:20;20.80;99.90
10512;DHT22;5304;48.604;2.096;2022-09-21T13:04:33;20.60;99.90
10512;DHT22;5304;48.604;2.096;2022-09-21T13:10:39;20.80;99.90
10512;DHT22;5304;48.604;2.096;2022-09-21T13:13:33;21.10;99.90
10512;DHT22;5304;48.604;2.096;2022-09-21T13:16:33;21.00;99.90
10512;DHT22;5304;48.604;2.096;2022-09-21T13:19:21;20.80;99.90
10512;DHT22;5304;48.604;2.096;2022-09-21T13:22:21;20.90;99.90
10512;DHT22;5304;48.604;2.096;2022-09-21T13:25:21;20.80;99.90
10512;DHT22;5304;48.604;2.096;2022-09-21T13:42:47;20.90;99.90
10512;DHT22;5304;48.604;2.096;2022-09-21T13:48:22;20.70;99.90
10512;DHT22;5304;48.604;2.096;2022-09-21T13:51:13;20.70;99.90
10512;DHT22;5304;48.604;2.096;2022-09-21T13:54:01;20.80;99.90
10512;DHT22;5304;48.604;2.096;2022-09-21T13:56:57;20.60;99.90
10512;DHT22;5304;48.604;2.096;2022-09-21T13:59:44;20.60;99.90
10512;DHT22;5304;48.604;2.096;2022-09-21T14:02:36;20.50;99.90
10512;DHT22;5304;48.604;2.096;2022-09-21T14:05:44;20.50;99.90
10512;DHT22;5304;48.604;2.096;2022-09-21T14:08:32;20.50;99.90
10512;DHT22;5304;48.604;2.096;2022-09-21T14:14:26;20.40;99.90
10512;DHT22;5304;48.604;2.096;2022-09-21T14:20:30;20.60;99.90
10512;DHT22;5304;48.604;2.096;2022-09-21T14:26:31;20.60;99.90
10512;DHT22;5304;48.604;2.096;2022-09-21T14:29:31;20.60;99.90
10512;DHT22;5304;48.604;2.096;2022-09-21T14:32:22;20.40;99.90
10512;DHT22;5304;48.604;2.096;2022-09-21T14:35:19;20.30;99.90
10512;DHT22;5304;48.604;2.096;2022-09-21T14:38:18;20.30;99.90
10512;DHT22;5304;48.604;2.096;2022-09-21T14:41:06;20.40;99.90
10512;DHT22;5304;48.604;2.096;2022-09-21T14:43:53;20.50;99.90
10512;DHT22;5304;48.604;2.096;2022-09-21T14:46:47;20.40;99.90
10512;DHT22;5304;48.604;2.096;2022-09-21T14:49:58;20.30;99.90
10512;DHT22;5304;48.604;2.096;2022-09-21T14:56:27;20.40;99.90
10512;DHT22;5304;48.604;2.096;2022-09-21T15:05:13;20.20;99.90
10512;DHT22;5304;48.604;2.096;2022-09-21T15:11:38;20.10;99.90
10512;DHT22;5304;48.604;2.096;2022-09-21T15:14:39;20.00;99.90
10512;DHT22;5304;48.604;2.096;2022-09-21T15:17:28;20.00;99.90
10512;DHT22;5304;48.604;2.096;2022-09-21T15:20:21;19.90;99.90
10512;DHT22;5304;48.604;2.096;2022-09-21T15:23:17;19.90;99.90
10512;DHT22;5304;48.604;2.096;2022-09-21T15:26:06;20.00;99.90
10512;DHT22;5304;48.604;2.096;2022-09-21T15:29:03;19.90;99.90
10512;DHT22;5304;48.604;2.096;2022-09-21T15:31:51;19.70;99.90
10512;DHT22;5304;48.604;2.096;2022-09-21T15:34:36;19.60;99.90
10512;DHT22;5304;48.604;2.096;2022-09-21T15:37:20;19.50;99.90
10512;DHT22;5304;48.604;2.096;2022-09-21T15:40:23;19.50;99.90
10512;DHT22;5304;48.604;2.096;2022-09-21T15:46:02;19.40;99.90
10512;DHT22;5304;48.604;2.096;2022-09-21T15:48:46;19.40;99.90
10512;DHT22;5304;48.604;2.096;2022-09-21T15:51:36;19.30;99.90
10512;DHT22;5304;48.604;2.096;2022-09-21T15:54:35;19.20;99.90
10512;DHT22;5304;48.604;2.096;2022-09-21T15:57:27;19.20;99.90
10512;DHT22;5304;48.604;2.096;2022-09-21T16:03:03;19.10;99.90
10512;DHT22;5304;48.604;2.096;2022-09-21T16:05:51;19.10;99.90
10512;DHT22;5304;48.604;2.096;2022-09-21T16:08:37;19.00;99.90
10512;DHT22;5304;48.604;2.096;2022-09-21T16:14:12;18.90;99.90
10512;DHT22;5304;48.604;2.096;2022-09-21T16:17:26;18.80;99.90
10512;DHT22;5304;48.604;2.096;2022-09-21T16:20:19;18.90;99.90
10512;DHT22;5304;48.604;2.096;2022-09-21T16:23:14;18.70;99.90
10512;DHT22;5304;48.604;2.096;2022-09-21T16:25:59;18.70;99.90
10512;DHT22;5304;48.604;2.096;2022-09-21T16:28:45;18.70;99.90
10512;DHT22;5304;48.604;2.096;2022-09-21T16:31:33;18.60;99.90
10512;DHT22;5304;48.604;2.096;2022-09-21T16:34:30;18.60;99.90
10512;DHT22;5304;48.604;2.096;2022-09-21T16:37:22;18.60;99.90
10512;DHT22;5304;48.604;2.096;2022-09-21T16:40:09;18.60;99.90
10512;DHT22;5304;48.604;2.096;2022-09-21T16:42:55;18.50;99.90
10512;DHT22;5304;48.604;2.096;2022-09-21T16:45:40;18.50;99.90
10512;DHT22;5304;48.604;2.096;2022-09-21T16:48:24;18.40;99.90
10512;DHT22;5304;48.604;2.096;2022-09-21T16:51:12;18.40;99.90
10512;DHT22;5304;48.604;2.096;2022-09-21T16:53:57;18.30;99.90
10512;DHT22;5304;48.604;2.096;2022-09-21T16:56:42;18.30;99.90
10512;DHT22;5304;48.604;2.096;2022-09-21T16:59:28;18.20;99.90
10512;DHT22;5304;48.604;2.096;2022-09-21T17:02:12;18.20;99.90
10512;DHT22;5304;48.604;2.096;2022-09-21T17:04:57;18.20;99.90
10512;DHT22;5304;48.604;2.096;2022-09-21T17:07:55;18.10;99.90
10512;DHT22;5304;48.604;2.096;2022-09-21T17:10:43;17.90;99.90
10512;DHT22;5304;48.604;2.096;2022-09-21T17:13:28;17.80;99.90
10512;DHT22;5304;48.604;2.096;2022-09-21T17:16:16;17.80;99.90
10512;DHT22;5304;48.604;2.096;2022-09-21T17:19:02;17.70;99.90
10512;DHT22;5304;48.604;2.096;2022-09-21T17:21:46;17.60;99.90
10512;DHT22;5304;48.604;2.096;2022-09-21T17:24:31;17.60;99.90
10512;DHT22;5304;48.604;2.096;2022-09-21T17:27:17;17.50;99.90
10512;DHT22;5304;48.604;2.096;2022-09-21T17:30:05;17.50;99.90
10512;DHT22;5304;48.604;2.096;2022-09-21T17:32:55;17.40;99.90
10512;DHT22;5304;48.604;2.096;2022-09-21T17:35:41;17.30;99.90
10512;DHT22;5304;48.604;2.096;2022-09-21T17:38:26;17.10;99.90
10512;DHT22;5304;48.604;2.096;2022-09-21T17:41:27;17.00;99.90
10512;DHT22;5304;48.604;2.096;2022-09-21T17:47:20;16.80;99.90
10512;DHT22;5304;48.604;2.096;2022-09-21T17:50:16;16.70;99.90
10512;DHT22;5304;48.604;2.096;2022-09-21T17:53:03;16.70;99.90
10512;DHT22;5304;48.604;2.096;2022-09-21T17:59:36;16.40;99.90
10512;DHT22;5304;48.604;2.096;2022-09-21T18:02:22;16.20;99.90
10512;DHT22;5304;48.604;2.096;2022-09-21T18:05:23;16.00;99.90
10512;DHT22;5304;48.604;2.096;2022-09-21T18:08:08;15.90;99.90
10512;DHT22;5304;48.604;2.096;2022-09-21T18:14:59;15.70;99.90
10512;DHT22;5304;48.604;2.096;2022-09-21T18:17:54;15.50;99.90
10512;DHT22;5304;48.604;2.096;2022-09-21T18:26:51;15.00;99.90
10512;DHT22;5304;48.604;2.096;2022-09-21T18:29:35;14.90;99.90
10512;DHT22;5304;48.604;2.096;2022-09-21T18:32:33;14.80;99.90
10512;DHT22;5304;48.604;2.096;2022-09-21T18:38:47;14.70;99.90
10512;DHT22;5304;48.604;2.096;2022-09-21T18:41:47;14.70;99.90
10512;DHT22;5304;48.604;2.096;2022-09-21T18:44:38;14.60;99.90
10512;DHT22;5304;48.604;2.096;2022-09-21T18:47:56;14.60;99.90
10512;DHT22;5304;48.604;2.096;2022-09-21T18:50:56;14.50;99.90
10512;DHT22;5304;48.604;2.096;2022-09-21T18:53:51;14.40;99.90
10512;DHT22;5304;48.604;2.096;2022-09-21T18:56:38;14.40;99.90
10512;DHT22;5304;48.604;2.096;2022-09-21T18:59:22;14.40;99.90
10512;DHT22;5304;48.604;2.096;2022-09-21T19:02:16;14.30;99.90
10512;DHT22;5304;48.604;2.096;2022-09-21T19:05:01;14.20;99.90
10512;DHT22;5304;48.604;2.096;2022-09-21T19:14:21;13.90;99.90
10512;DHT22;5304;48.604;2.096;2022-09-21T19:29:16;13.60;99.90
10512;DHT22;5304;48.604;2.096;2022-09-21T19:32:16;13.60;99.90
10512;DHT22;5304;48.604;2.096;2022-09-21T19:38:00;13.40;99.90
10512;DHT22;5304;48.604;2.096;2022-09-21T19:40:48;13.40;99.90
10512;DHT22;5304;48.604;2.096;2022-09-21T19:49:34;13.30;99.90
10512;DHT22;5304;48.604;2.096;2022-09-21T19:52:32;13.20;99.90
10512;DHT22;5304;48.604;2.096;2022-09-21T19:55:19;13.20;99.90
10512;DHT22;5304;48.604;2.096;2022-09-21T19:58:24;13.20;99.90
10512;DHT22;5304;48.604;2.096;2022-09-21T20:01:28;13.20;99.90
10512;DHT22;5304;48.604;2.096;2022-09-21T20:04:14;13.10;99.90
10512;DHT22;5304;48.604;2.096;2022-09-21T20:07:05;13.00;99.90
10512;DHT22;5304;48.604;2.096;2022-09-21T20:10:24;12.90;99.90
10512;DHT22;5304;48.604;2.096;2022-09-21T20:13:15;12.80;99.90
10512;DHT22;5304;48.604;2.096;2022-09-21T20:16:20;12.70;99.90
10512;DHT22;5304;48.604;2.096;2022-09-21T20:19:42;12.50;99.90
10512;DHT22;5304;48.604;2.096;2022-09-21T20:22:39;12.40;99.90
10512;DHT22;5304;48.604;2.096;2022-09-21T20:25:34;12.40;99.90
10512;DHT22;5304;48.604;2.096;2022-09-21T20:28:21;12.30;99.90
10512;DHT22;5304;48.604;2.096;2022-09-21T20:31:05;12.30;99.90
10512;DHT22;5304;48.604;2.096;2022-09-21T20:33:51;12.20;99.90
10512;DHT22;5304;48.604;2.096;2022-09-21T20:36:36;12.10;99.90
10512;DHT22;5304;48.604;2.096;2022-09-21T20:39:21;12.00;99.90
10512;DHT22;5304;48.604;2.096;2022-09-21T20:42:05;11.80;99.90
10512;DHT22;5304;48.604;2.096;2022-09-21T20:44:50;11.70;99.90
10512;DHT22;5304;48.604;2.096;2022-09-21T20:47:35;11.70;99.90
10512;DHT22;5304;48.604;2.096;2022-09-21T20:50:20;11.90;99.90
10512;DHT22;5304;48.604;2.096;2022-09-21T20:53:05;11.90;99.90
10512;DHT22;5304;48.604;2.096;2022-09-21T20:55:55;11.80;99.90
10512;DHT22;5304;48.604;2.096;2022-09-21T20:58:39;11.70;99.90
10512;DHT22;5304;48.604;2.096;2022-09-21T21:01:24;11.70;99.90
10512;DHT22;5304;48.604;2.096;2022-09-21T21:04:10;11.70;99.90
10512;DHT22;5304;48.604;2.096;2022-09-21T21:06:55;11.60;99.90
10512;DHT22;5304;48.604;2.096;2022-09-21T21:09:40;11.70;99.90
10512;DHT22;5304;48.604;2.096;2022-09-21T21:12:24;11.50;99.90
10512;DHT22;5304;48.604;2.096;2022-09-21T21:15:10;11.40;99.90
10512;DHT22;5304;48.604;2.096;2022-09-21T21:17:55;11.40;99.90
10512;DHT22;5304;48.604;2.096;2022-09-21T21:20:40;11.40;99.90
10512;DHT22;5304;48.604;2.096;2022-09-21T21:23:24;11.40;99.90
10512;DHT22;5304;48.604;2.096;2022-09-21T21:26:08;11.50;99.90
10512;DHT22;5304;48.604;2.096;2022-09-21T21:28:53;11.40;99.90
10512;DHT22;5304;48.604;2.096;2022-09-21T21:31:38;11.30;99.90
10512;DHT22;5304;48.604;2.096;2022-09-21T21:34:23;11.20;99.90
10512;DHT22;5304;48.604;2.096;2022-09-21T21:37:08;11.00;99.90
10512;DHT22;5304;48.604;2.096;2022-09-21T21:39:53;11.00;99.90
10512;DHT22;5304;48.604;2.096;2022-09-21T21:42:37;10.90;99.90
10512;DHT22;5304;48.604;2.096;2022-09-21T21:45:22;10.90;99.90
10512;DHT22;5304;48.604;2.096;2022-09-21T21:48:07;10.90;99.90
10512;DHT22;5304;48.604;2.096;2022-09-21T21:50:59;10.80;99.90
10512;DHT22;5304;48.604;2.096;2022-09-21T21:53:44;10.80;99.90
10512;DHT22;5304;48.604;2.096;2022-09-21T21:56:28;10.70;99.90